createdAt,value
2018-07-11T00:01:14.178Z,13.70
2018-07-11T00:03:52.289Z,13.70
2018-07-11T00:06:22.059Z,13.70
2018-07-11T00:08:50.682Z,13.60
2018-07-11T00:11:19.147Z,13.50
2018-07-11T00:13:48.393Z,13.30
2018-07-11T00:16:17.389Z,13.40
2018-07-11T00:18:45.842Z,13.30
2018-07-11T00:21:14.454Z,13.40
2018-07-11T00:23:43.026Z,13.30
2018-07-11T00:26:12.052Z,13.30
2018-07-11T00:28:40.568Z,13.30
2018-07-11T00:31:09.148Z,13.20
2018-07-11T00:33:37.672Z,13.20
2018-07-11T00:36:06.251Z,13.20
2018-07-11T00:38:34.772Z,13.20
2018-07-11T00:41:03.705Z,13.10
2018-07-11T00:43:34.365Z,13.00
2018-07-11T00:46:03.693Z,13.00
2018-07-11T00:48:32.744Z,12.90
2018-07-11T00:51:02.251Z,12.90
2018-07-11T00:53:32.515Z,12.80
2018-07-11T00:56:01.865Z,12.70
2018-07-11T00:58:33.088Z,12.70
2018-07-11T01:01:08.909Z,12.70
2018-07-11T01:03:40.005Z,12.70
2018-07-11T01:06:08.739Z,12.70
2018-07-11T01:08:38.997Z,12.60
2018-07-11T01:11:11.477Z,12.70
2018-07-11T01:13:40.977Z,12.70
2018-07-11T01:16:09.529Z,12.60
2018-07-11T01:18:43.361Z,12.60
2018-07-11T01:21:11.864Z,12.50
2018-07-11T01:23:40.821Z,12.40
2018-07-11T01:26:09.464Z,12.50
2018-07-11T01:28:37.997Z,12.50
2018-07-11T01:31:06.673Z,12.50
2018-07-11T01:33:35.164Z,12.50
2018-07-11T01:36:03.656Z,12.50
2018-07-11T01:38:32.153Z,12.40
2018-07-11T01:41:00.687Z,12.50
2018-07-11T01:43:29.133Z,12.50
2018-07-11T01:45:57.648Z,12.50
2018-07-11T01:48:26.189Z,12.50
2018-07-11T01:50:54.711Z,12.40
2018-07-11T01:53:23.213Z,12.40
2018-07-11T01:55:51.743Z,12.40
2018-07-11T01:58:20.237Z,12.50
2018-07-11T02:00:48.746Z,12.40
2018-07-11T02:03:17.565Z,12.30
2018-07-11T02:10:42.421Z,12.30
2018-07-11T02:13:10.937Z,12.40
2018-07-11T02:15:39.409Z,12.40
2018-07-11T02:18:07.961Z,12.40
2018-07-11T02:20:36.501Z,12.40
2018-07-11T02:23:05.053Z,12.40
2018-07-11T02:25:33.584Z,12.30
2018-07-11T02:28:02.062Z,12.20
2018-07-11T02:30:30.609Z,12.20
2018-07-11T02:32:59.069Z,12.10
2018-07-11T02:35:27.585Z,12.10
2018-07-11T02:37:56.422Z,12.00
2018-07-11T02:40:25.237Z,11.90
2018-07-11T02:42:53.896Z,11.80
2018-07-11T02:45:22.829Z,11.70
2018-07-11T02:50:19.567Z,11.70
2018-07-11T02:52:48.201Z,11.70
2018-07-11T02:55:16.825Z,11.60
2018-07-11T02:57:45.480Z,11.50
2018-07-11T03:00:13.992Z,11.50
2018-07-11T03:02:42.921Z,11.50
2018-07-11T03:07:39.764Z,11.50
2018-07-11T03:10:08.553Z,11.40
2018-07-11T03:12:37.121Z,11.40
2018-07-11T03:15:05.717Z,11.30
2018-07-11T03:17:34.611Z,11.30
2018-07-11T03:20:03.183Z,11.30
2018-07-11T03:22:31.712Z,11.30
2018-07-11T03:25:00.335Z,11.10
2018-07-11T03:27:28.909Z,11.10
2018-07-11T03:29:57.576Z,11.00
2018-07-11T03:32:26.116Z,11.00
2018-07-11T03:34:54.933Z,10.90
2018-07-11T03:37:23.479Z,10.90
2018-07-11T03:39:52.108Z,10.80
2018-07-11T03:42:20.572Z,10.90
2018-07-11T03:44:49.399Z,10.90
2018-07-11T03:47:17.908Z,10.80
2018-07-11T03:49:46.445Z,10.80
2018-07-11T03:52:14.925Z,10.80
2018-07-11T03:54:43.353Z,10.90
2018-07-11T03:57:11.814Z,10.90
2018-07-11T03:59:40.278Z,11.00
2018-07-11T04:02:08.789Z,11.00
2018-07-11T04:04:37.272Z,11.00
2018-07-11T04:07:05.725Z,11.10
2018-07-11T04:09:34.164Z,11.20
2018-07-11T04:12:02.677Z,11.20
2018-07-11T04:14:31.132Z,11.30
2018-07-11T04:16:59.643Z,11.70
2018-07-11T04:19:28.060Z,12.30
2018-07-11T04:21:56.508Z,12.70
2018-07-11T04:24:25.012Z,13.10
2018-07-11T04:26:53.605Z,12.80
2018-07-11T04:29:22.105Z,12.40
2018-07-11T04:31:50.632Z,12.50
2018-07-11T04:34:19.112Z,13.00
2018-07-11T04:36:47.609Z,13.30
2018-07-11T04:39:16.105Z,14.20
2018-07-11T04:41:44.609Z,14.70
2018-07-11T04:44:13.127Z,15.00
2018-07-11T04:46:41.669Z,15.70
2018-07-11T04:49:10.176Z,15.70
2018-07-11T04:51:38.704Z,15.80
2018-07-11T04:54:07.204Z,16.40
2018-07-11T04:56:35.700Z,16.30
2018-07-11T04:59:04.164Z,16.80
2018-07-11T05:01:32.610Z,16.20
2018-07-11T05:04:01.161Z,16.00
2018-07-11T05:06:29.594Z,16.00
2018-07-11T05:08:58.056Z,16.80
2018-07-11T05:11:26.520Z,16.80
2018-07-11T05:13:54.960Z,17.10
2018-07-11T05:16:23.412Z,17.90
2018-07-11T05:18:51.856Z,17.60
2018-07-11T05:21:20.312Z,16.90
2018-07-11T05:23:48.785Z,17.20
2018-07-11T05:26:17.236Z,16.90
2018-07-11T05:28:45.729Z,17.40
2018-07-11T05:31:14.962Z,18.40
2018-07-11T05:36:11.655Z,16.60
2018-07-11T05:38:40.112Z,16.60
2018-07-11T05:41:08.545Z,15.90
2018-07-11T05:43:36.992Z,17.10
2018-07-11T05:46:05.528Z,15.90
2018-07-11T05:51:02.355Z,15.60
2018-07-11T05:53:30.807Z,15.30
2018-07-11T05:55:59.317Z,15.60
2018-07-11T05:58:27.793Z,15.20
2018-07-11T06:00:56.292Z,14.80
2018-07-11T06:03:24.863Z,14.30
2018-07-11T06:05:53.492Z,14.80
2018-07-11T06:08:21.958Z,14.70
2018-07-11T06:10:50.554Z,14.50
2018-07-11T06:13:19.109Z,14.20
2018-07-11T06:15:48.277Z,14.10
2018-07-11T06:18:17.629Z,14.10
2018-07-11T06:20:47.551Z,14.70
2018-07-11T06:23:16.292Z,14.40
2018-07-11T06:25:44.724Z,15.00
2018-07-11T06:28:13.299Z,14.90
2018-07-11T06:30:41.989Z,15.40
2018-07-11T06:33:10.568Z,15.50
2018-07-11T06:35:39.015Z,15.50
2018-07-11T06:38:07.512Z,15.60
2018-07-11T06:40:36.108Z,16.10
2018-07-11T06:43:04.649Z,17.70
2018-07-11T06:45:33.324Z,18.20
2018-07-11T06:48:01.871Z,16.60
2018-07-11T06:50:31.249Z,17.70
2018-07-11T06:53:00.456Z,18.70
2018-07-11T06:55:28.955Z,18.40
2018-07-11T06:57:57.670Z,19.60
2018-07-11T07:00:26.177Z,17.80
2018-07-11T07:02:55.613Z,16.90
2018-07-11T07:05:27.132Z,17.00
2018-07-11T07:07:56.295Z,17.50
2018-07-11T07:10:24.726Z,17.70
2018-07-11T07:12:56.869Z,18.10
2018-07-11T07:15:26.075Z,18.30
2018-07-11T07:17:55.257Z,18.20
2018-07-11T07:20:23.943Z,19.10
2018-07-11T07:22:52.946Z,19.70
2018-07-11T07:25:21.817Z,19.30
2018-07-11T07:27:50.890Z,20.40
2018-07-11T07:30:19.794Z,20.40
2018-07-11T07:32:48.292Z,21.70
2018-07-11T07:35:17.585Z,21.50
2018-07-11T07:37:46.024Z,22.00
2018-07-11T07:40:14.480Z,21.70
2018-07-11T07:42:43.084Z,22.80
2018-07-11T07:45:11.573Z,23.30
2018-07-11T07:47:44.097Z,23.20
2018-07-11T07:50:13.661Z,22.90
2018-07-11T07:52:42.312Z,22.50
2018-07-11T07:55:11.091Z,23.00
2018-07-11T07:57:40.522Z,21.90
2018-07-11T08:00:09.065Z,20.20
2018-07-11T08:02:38.845Z,21.30
2018-07-11T08:05:08.836Z,19.80
2018-07-11T08:07:38.816Z,21.10
2018-07-11T08:10:08.364Z,23.40
2018-07-11T08:12:37.385Z,22.00
2018-07-11T08:15:06.574Z,20.50
2018-07-11T08:20:03.296Z,21.30
2018-07-11T08:23:42.643Z,20.30
2018-07-11T08:26:22.881Z,19.60
2018-07-11T08:31:05.356Z,22.00
2018-07-11T08:33:45.060Z,21.10
2018-07-11T08:36:32.306Z,21.20
2018-07-11T08:39:21.373Z,19.80
2018-07-11T08:42:03.378Z,21.10
2018-07-11T08:44:47.296Z,22.20
2018-07-11T08:47:27.969Z,22.90
2018-07-11T08:50:08.613Z,22.10
2018-07-11T08:53:56.704Z,21.90
2018-07-11T08:57:44.547Z,20.90
2018-07-11T09:01:22.106Z,20.50
2018-07-11T09:04:05.882Z,20.20
2018-07-11T09:07:44.550Z,19.60
2018-07-11T09:12:29.909Z,21.20
2018-07-11T09:15:22.801Z,21.50
2018-07-11T09:18:02.117Z,21.60
2018-07-11T09:22:38.496Z,20.80
2018-07-11T09:25:07.392Z,21.80
2018-07-11T09:27:36.080Z,23.10
2018-07-11T09:30:04.716Z,20.80
2018-07-11T09:32:33.532Z,20.60
2018-07-11T09:35:02.085Z,21.60
2018-07-11T09:37:30.835Z,21.70
2018-07-11T09:39:59.413Z,21.10
2018-07-11T09:42:28.460Z,21.70
2018-07-11T09:44:57.004Z,21.30
2018-07-11T09:47:28.592Z,21.20
2018-07-11T09:49:58.106Z,21.80
2018-07-11T09:52:27.301Z,21.60
2018-07-11T09:54:56.135Z,21.50
2018-07-11T09:57:25.668Z,21.40
2018-07-11T09:59:55.024Z,20.90
2018-07-11T10:02:23.645Z,21.20
2018-07-11T10:04:53.662Z,21.70
2018-07-11T10:07:22.928Z,21.20
2018-07-11T10:09:51.699Z,21.50
2018-07-11T10:14:48.336Z,20.60
2018-07-11T10:17:16.982Z,21.40
2018-07-11T10:19:45.473Z,21.80
2018-07-11T10:22:14.184Z,21.60
2018-07-11T10:24:42.848Z,23.30
2018-07-11T10:27:11.818Z,22.70
2018-07-11T10:29:41.485Z,21.60
2018-07-11T10:32:10.037Z,22.30
2018-07-11T10:34:38.737Z,22.90
2018-07-11T10:37:07.349Z,22.10
2018-07-11T10:39:35.998Z,22.70
2018-07-11T10:42:04.482Z,22.40
2018-07-11T10:44:33.243Z,23.60
2018-07-11T10:47:12.215Z,23.40
2018-07-11T10:49:42.033Z,22.70
2018-07-11T10:52:10.727Z,24.40
2018-07-11T10:54:39.812Z,24.20
2018-07-11T10:57:08.374Z,23.30
2018-07-11T10:59:37.409Z,22.50
2018-07-11T11:02:06.045Z,21.90
2018-07-11T11:04:34.815Z,22.40
2018-07-11T11:07:04.205Z,22.20
2018-07-11T11:09:32.657Z,22.10
2018-07-11T11:12:01.295Z,24.00
2018-07-11T11:14:29.831Z,23.80
2018-07-11T11:19:27.037Z,22.80
2018-07-11T11:21:55.880Z,22.50
2018-07-11T11:24:24.388Z,22.50
2018-07-11T11:26:53.008Z,22.30
2018-07-11T11:29:21.445Z,22.80
2018-07-11T11:31:50.033Z,22.50
2018-07-11T11:34:18.517Z,21.90
2018-07-11T11:36:47.208Z,22.80
2018-07-11T11:39:16.120Z,24.20
2018-07-11T11:41:44.840Z,24.60
2018-07-11T11:44:13.282Z,24.10
2018-07-11T11:46:41.975Z,24.20
2018-07-11T11:49:10.602Z,24.90
2018-07-11T11:51:39.187Z,23.40
2018-07-11T11:54:07.804Z,22.80
2018-07-11T11:56:36.330Z,22.00
2018-07-11T11:59:05.165Z,22.60
2018-07-11T12:01:33.856Z,22.90
2018-07-11T12:04:02.294Z,23.70
2018-07-11T12:06:30.883Z,24.70
2018-07-11T12:08:59.451Z,24.90
2018-07-11T12:11:28.127Z,25.30
2018-07-11T12:13:56.866Z,24.30
2018-07-11T12:16:25.345Z,22.80
2018-07-11T12:18:53.901Z,23.10
2018-07-11T12:21:22.455Z,23.80
2018-07-11T12:23:51.354Z,23.40
2018-07-11T12:26:20.154Z,23.80
2018-07-11T12:28:49.139Z,23.50
2018-07-11T12:31:18.256Z,23.20
2018-07-11T12:33:47.761Z,22.60
2018-07-11T12:36:16.309Z,24.50
2018-07-11T12:38:46.042Z,25.00
2018-07-11T12:41:14.603Z,26.10
2018-07-11T12:43:43.667Z,26.30
2018-07-11T12:46:12.613Z,25.30
2018-07-11T12:48:46.839Z,24.60
2018-07-11T12:51:16.289Z,24.00
2018-07-11T12:53:46.277Z,24.00
2018-07-11T12:56:15.033Z,23.50
2018-07-11T12:58:43.868Z,24.10
2018-07-11T13:01:13.351Z,25.20
2018-07-11T13:03:42.180Z,24.30
2018-07-11T13:06:11.092Z,24.20
2018-07-11T13:08:40.076Z,23.20
2018-07-11T13:11:08.652Z,23.60
2018-07-11T13:13:37.336Z,23.90
2018-07-11T13:16:05.982Z,23.60
2018-07-11T13:18:34.536Z,24.80
2018-07-11T13:21:03.019Z,24.00
2018-07-11T13:23:31.508Z,23.00
2018-07-11T13:25:59.956Z,23.20
2018-07-11T13:28:28.436Z,22.60
2018-07-11T13:30:56.929Z,23.20
2018-07-11T13:33:25.465Z,24.20
2018-07-11T13:35:54.312Z,23.90
2018-07-11T13:38:23.189Z,23.90
2018-07-11T13:40:51.686Z,23.00
2018-07-11T13:43:20.220Z,23.30
2018-07-11T13:45:48.965Z,24.00
2018-07-11T13:48:17.481Z,25.10
2018-07-11T13:50:46.068Z,25.30
2018-07-11T13:53:14.711Z,25.00
2018-07-11T13:55:43.232Z,25.30
2018-07-11T13:58:12.473Z,25.30
2018-07-11T14:00:41.126Z,23.90
2018-07-11T14:03:09.708Z,25.20
2018-07-11T14:05:38.553Z,25.80
2018-07-11T14:08:07.093Z,23.80
2018-07-11T14:10:35.584Z,23.40
2018-07-11T14:13:04.184Z,23.90
2018-07-11T14:15:32.722Z,24.00
2018-07-11T14:18:01.232Z,25.20
2018-07-11T14:20:30.052Z,25.40
2018-07-11T14:23:05.369Z,25.10
2018-07-11T14:25:38.857Z,25.00
2018-07-11T14:28:08.101Z,25.40
2018-07-11T14:30:37.966Z,25.80
2018-07-11T14:33:08.134Z,25.20
2018-07-11T14:35:36.954Z,25.40
2018-07-11T14:38:05.448Z,24.90
2018-07-11T14:40:33.926Z,24.30
2018-07-11T14:43:02.501Z,24.30
2018-07-11T14:45:33.213Z,24.20
2018-07-11T14:48:07.232Z,23.90
2018-07-11T14:50:36.060Z,24.10
2018-07-11T14:55:33.973Z,24.20
2018-07-11T14:58:02.587Z,24.70
2018-07-11T15:00:31.083Z,24.10
2018-07-11T15:02:59.643Z,24.90
2018-07-11T15:05:28.601Z,24.90
2018-07-11T15:07:57.664Z,24.60
2018-07-11T15:10:26.683Z,24.60
2018-07-11T15:12:55.269Z,25.20
2018-07-11T15:15:23.813Z,25.00
2018-07-11T15:17:52.301Z,24.20
2018-07-11T15:20:20.954Z,23.10
2018-07-11T15:22:49.560Z,23.30
2018-07-11T15:25:17.980Z,23.50
2018-07-11T15:27:46.493Z,23.60
2018-07-11T15:30:15.004Z,23.80
2018-07-11T15:32:43.579Z,23.50
2018-07-11T15:35:12.311Z,23.60
2018-07-11T15:37:40.868Z,23.20
2018-07-11T15:40:09.323Z,23.50
2018-07-11T15:45:06.249Z,23.00
2018-07-11T15:47:35.766Z,22.40
2018-07-11T15:50:04.573Z,22.40
2018-07-11T15:52:34.376Z,22.30
2018-07-11T15:55:04.622Z,22.20
2018-07-11T15:57:36.877Z,22.30
2018-07-11T16:00:11.789Z,22.40
2018-07-11T16:02:44.605Z,22.60
2018-07-11T16:05:18.430Z,22.70
2018-07-11T16:07:48.497Z,22.50
2018-07-11T16:10:18.513Z,22.30
2018-07-11T16:12:47.009Z,22.00
2018-07-11T16:15:15.457Z,22.10
2018-07-11T16:17:44.157Z,22.10
2018-07-11T16:20:12.692Z,22.10
2018-07-11T16:22:41.198Z,22.00
2018-07-11T16:25:09.682Z,22.30
2018-07-11T16:27:38.217Z,22.20
2018-07-11T16:30:06.697Z,22.10
2018-07-11T16:32:35.198Z,22.50
2018-07-11T16:35:03.673Z,22.30
2018-07-11T16:37:32.174Z,22.10
2018-07-11T16:40:00.645Z,22.20
2018-07-11T16:42:29.214Z,21.80
2018-07-11T16:44:57.712Z,21.60
2018-07-11T16:47:27.061Z,21.40
2018-07-11T16:49:56.560Z,21.40
2018-07-11T16:52:25.064Z,21.60
2018-07-11T16:54:53.621Z,21.90
2018-07-11T16:57:27.761Z,21.90
2018-07-11T17:00:00.943Z,21.60
2018-07-11T17:02:29.600Z,21.40
2018-07-11T17:05:03.953Z,21.60
2018-07-11T17:07:34.768Z,21.30
2018-07-11T17:10:05.587Z,21.40
2018-07-11T17:12:34.900Z,21.60
2018-07-11T17:15:03.449Z,21.50
2018-07-11T17:17:35.347Z,21.30
2018-07-11T17:20:06.669Z,21.30
2018-07-11T17:22:50.096Z,21.50
2018-07-11T17:25:20.713Z,21.40
2018-07-11T17:27:52.554Z,21.30
2018-07-11T17:30:21.414Z,21.30
2018-07-11T17:32:49.990Z,21.30
2018-07-11T17:35:18.501Z,21.50
2018-07-11T17:37:47.045Z,21.30
2018-07-11T17:40:15.541Z,21.20
2018-07-11T17:42:45.193Z,21.20
2018-07-11T17:45:19.016Z,21.10
2018-07-11T17:49:57.845Z,21.20
2018-07-11T17:52:27.796Z,21.00
2018-07-11T17:55:13.357Z,19.90
2018-07-11T17:57:46.184Z,19.10
2018-07-11T18:00:20.456Z,19.10
2018-07-11T18:02:54.633Z,18.70
2018-07-11T18:05:32.379Z,18.40
2018-07-11T18:08:07.474Z,18.30
2018-07-11T18:13:25.449Z,18.70
2018-07-11T18:16:03.580Z,19.00
2018-07-11T18:18:44.893Z,19.30
2018-07-11T18:21:25.857Z,19.40
2018-07-11T18:24:05.340Z,19.60
2018-07-11T18:27:45.725Z,19.60
2018-07-11T18:30:20.880Z,19.80
2018-07-11T18:33:06.648Z,19.60
2018-07-11T18:35:46.753Z,19.50
2018-07-11T18:38:23.129Z,19.70
2018-07-11T18:41:09.692Z,19.80
2018-07-11T18:44:01.397Z,19.70
2018-07-11T18:47:03.022Z,19.80
2018-07-11T18:50:13.788Z,20.00
2018-07-11T18:52:52.952Z,19.90
2018-07-11T18:55:39.632Z,19.80
2018-07-11T19:00:24.396Z,19.70
2018-07-11T19:03:01.930Z,19.80
2018-07-11T19:05:41.700Z,19.80
2018-07-11T19:09:53.117Z,19.90
2018-07-11T19:12:25.950Z,19.80
2018-07-11T19:15:13.572Z,19.80
2018-07-11T19:18:22.736Z,19.80
2018-07-11T19:21:10.493Z,19.90
2018-07-11T19:24:03.307Z,20.00
2018-07-11T19:26:43.808Z,19.80
2018-07-11T19:29:51.712Z,19.90
2018-07-11T19:32:48.440Z,19.90
2018-07-11T19:37:03.549Z,19.90
2018-07-11T19:39:41.641Z,19.80
2018-07-11T19:42:54.600Z,20.00
2018-07-11T19:46:35.208Z,20.00
2018-07-11T19:49:33.450Z,19.90
2018-07-11T19:52:09.501Z,20.00
2018-07-11T19:54:49.695Z,20.00
2018-07-11T19:57:18.241Z,20.00
2018-07-11T19:59:46.693Z,20.00
2018-07-11T20:02:15.154Z,20.10
2018-07-11T20:04:43.697Z,20.00
2018-07-11T20:07:12.161Z,20.10
2018-07-11T20:09:40.648Z,20.00
2018-07-11T20:12:09.770Z,20.00
2018-07-11T20:14:38.279Z,20.00
2018-07-11T20:17:06.768Z,20.00
2018-07-11T20:19:35.310Z,19.90
2018-07-11T20:22:03.796Z,19.90
2018-07-11T20:24:32.321Z,19.80
2018-07-11T20:27:00.779Z,19.80
2018-07-11T20:29:29.660Z,19.90
2018-07-11T20:31:58.157Z,20.00
2018-07-11T20:34:26.597Z,20.00
2018-07-11T20:36:55.084Z,19.90
2018-07-11T20:39:23.505Z,19.80
2018-07-11T20:44:20.660Z,19.80
2018-07-11T20:46:49.182Z,19.80
2018-07-11T20:49:22.961Z,19.70
2018-07-11T20:51:51.467Z,19.70
2018-07-11T20:54:19.897Z,19.60
2018-07-11T20:56:48.348Z,19.70
2018-07-11T20:59:28.176Z,19.60
2018-07-11T21:02:07.953Z,19.50
2018-07-11T21:04:44.150Z,19.50
2018-07-11T21:09:28.232Z,19.50
2018-07-11T21:12:13.565Z,19.40
2018-07-11T21:14:56.342Z,19.40
2018-07-11T21:17:35.883Z,19.40
2018-07-11T21:20:04.385Z,19.40
2018-07-11T21:22:32.836Z,19.30
2018-07-11T21:25:01.269Z,19.30
2018-07-11T21:27:29.696Z,19.30
2018-07-11T21:29:58.177Z,19.30
2018-07-11T21:32:26.624Z,19.30
2018-07-11T21:34:55.146Z,19.20
2018-07-11T21:37:23.629Z,19.20
2018-07-11T21:39:52.172Z,19.20
2018-07-11T21:42:20.668Z,19.10
2018-07-11T21:44:49.157Z,19.00
2018-07-11T21:47:17.592Z,19.10
2018-07-11T21:49:46.074Z,19.00
2018-07-11T21:52:14.577Z,19.00
2018-07-11T21:54:43.117Z,19.00
2018-07-11T21:57:11.605Z,18.90
2018-07-11T21:59:40.138Z,18.90
2018-07-11T22:02:08.610Z,18.90
2018-07-11T22:04:37.082Z,18.80
2018-07-11T22:07:05.752Z,18.80
2018-07-11T22:09:34.218Z,18.90
2018-07-11T22:12:02.736Z,19.00
2018-07-11T22:14:31.231Z,18.70
2018-07-11T22:17:09.647Z,18.60
2018-07-11T22:19:36.952Z,18.80
2018-07-11T22:22:04.246Z,18.80
2018-07-11T22:24:31.549Z,18.60
2018-07-11T22:26:58.849Z,18.50
2018-07-11T22:29:26.137Z,18.50
2018-07-11T22:31:53.447Z,18.50
2018-07-11T22:34:20.733Z,18.20
2018-07-11T22:36:48.029Z,17.70
2018-07-11T22:39:15.325Z,17.70
2018-07-11T22:41:42.633Z,17.70
2018-07-11T22:44:10.324Z,17.60
2018-07-11T22:46:37.633Z,17.70
2018-07-11T22:49:04.934Z,17.70
2018-07-11T22:51:32.271Z,17.90
2018-07-11T22:53:59.553Z,17.70
2018-07-11T22:56:26.853Z,17.70
2018-07-11T22:58:54.140Z,17.70
2018-07-11T23:01:21.661Z,17.80
2018-07-11T23:03:48.950Z,17.80
2018-07-11T23:06:16.249Z,17.70
2018-07-11T23:08:43.525Z,17.70
2018-07-11T23:11:10.820Z,17.70
2018-07-11T23:13:38.131Z,17.70
2018-07-11T23:16:05.435Z,17.70
2018-07-11T23:18:32.736Z,17.60
2018-07-11T23:21:00.042Z,17.60
2018-07-11T23:23:28.177Z,17.50
2018-07-11T23:25:55.484Z,17.40
2018-07-11T23:28:22.772Z,17.50
2018-07-11T23:30:50.077Z,17.40
2018-07-11T23:33:17.360Z,17.30
2018-07-11T23:35:44.662Z,17.30
2018-07-11T23:38:11.949Z,17.60
2018-07-11T23:40:39.253Z,17.50
2018-07-11T23:43:06.534Z,17.50
2018-07-11T23:45:33.900Z,17.50
2018-07-11T23:48:01.188Z,17.50
2018-07-11T23:50:28.488Z,17.40
2018-07-11T23:52:55.768Z,17.40
2018-07-11T23:55:23.071Z,17.40
2018-07-11T23:57:50.359Z,17.50
